sensor_id;sensor_type;location;lat;lon;timestamp;temperature;humidity
44461;DHT22;30162;53.642;10.640;2022-12-18T00:01:24;-2.90;86.50
44461;DHT22;30162;53.642;10.640;2022-12-18T00:03:50;-2.80;86.70
44461;DHT22;30162;53.642;10.640;2022-12-18T00:06:16;-2.70;86.20
44461;DHT22;30162;53.642;10.640;2022-12-18T00:08:43;-2.80;85.80
44461;DHT22;30162;53.642;10.640;2022-12-18T00:11:12;-2.80;86.10
44461;DHT22;30162;53.642;10.640;2022-12-18T00:13:38;-2.80;86.20
44461;DHT22;30162;53.642;10.640;2022-12-18T00:16:09;-2.70;86.20
44461;DHT22;30162;53.642;10.640;2022-12-18T00:18:35;-2.70;85.40
44461;DHT22;30162;53.642;10.640;2022-12-18T00:21:03;-2.80;85.80
44461;DHT22;30162;53.642;10.640;2022-12-18T00:23:30;-2.90;86.20
44461;DHT22;30162;53.642;10.640;2022-12-18T00:26:00;-2.90;86.10
44461;DHT22;30162;53.642;10.640;2022-12-18T00:28:25;-2.80;86.30
44461;DHT22;30162;53.642;10.640;2022-12-18T00:30:59;-2.80;86.50
44461;DHT22;30162;53.642;10.640;2022-12-18T00:33:25;-2.70;86.30
44461;DHT22;30162;53.642;10.640;2022-12-18T00:35:50;-2.70;88.10
44461;DHT22;30162;53.642;10.640;2022-12-18T00:38:16;-2.70;86.50
44461;DHT22;30162;53.642;10.640;2022-12-18T00:40:41;-2.60;85.90
44461;DHT22;30162;53.642;10.640;2022-12-18T00:43:07;-2.60;85.70
44461;DHT22;30162;53.642;10.640;2022-12-18T00:47:58;-2.80;84.70
44461;DHT22;30162;53.642;10.640;2022-12-18T00:50:25;-2.90;85.20
44461;DHT22;30162;53.642;10.640;2022-12-18T00:52:51;-3.00;85.90
44461;DHT22;30162;53.642;10.640;2022-12-18T00:55:17;-3.00;85.90
44461;DHT22;30162;53.642;10.640;2022-12-18T00:57:43;-3.00;85.70
44461;DHT22;30162;53.642;10.640;2022-12-18T01:00:12;-3.10;85.50
44461;DHT22;30162;53.642;10.640;2022-12-18T01:02:38;-3.00;85.30
44461;DHT22;30162;53.642;10.640;2022-12-18T01:05:04;-3.00;85.30
44461;DHT22;30162;53.642;10.640;2022-12-18T01:07:30;-2.90;85.50
44461;DHT22;30162;53.642;10.640;2022-12-18T01:09:56;-3.10;86.60
44461;DHT22;30162;53.642;10.640;2022-12-18T01:12:21;-2.90;86.60
44461;DHT22;30162;53.642;10.640;2022-12-18T01:14:47;-2.90;87.00
44461;DHT22;30162;53.642;10.640;2022-12-18T01:17:13;-2.90;86.30
44461;DHT22;30162;53.642;10.640;2022-12-18T01:19:38;-2.90;85.60
44461;DHT22;30162;53.642;10.640;2022-12-18T01:22:04;-2.80;85.30
44461;DHT22;30162;53.642;10.640;2022-12-18T01:24:29;-2.80;85.30
44461;DHT22;30162;53.642;10.640;2022-12-18T01:26:55;-3.00;86.00
44461;DHT22;30162;53.642;10.640;2022-12-18T01:29:22;-3.00;85.90
44461;DHT22;30162;53.642;10.640;2022-12-18T01:31:48;-3.00;86.30
44461;DHT22;30162;53.642;10.640;2022-12-18T01:34:13;-3.00;87.70
44461;DHT22;30162;53.642;10.640;2022-12-18T01:36:39;-2.80;87.00
44461;DHT22;30162;53.642;10.640;2022-12-18T01:39:07;-2.80;85.90
44461;DHT22;30162;53.642;10.640;2022-12-18T01:41:34;-2.80;86.40
44461;DHT22;30162;53.642;10.640;2022-12-18T01:47:38;-2.90;85.70
44461;DHT22;30162;53.642;10.640;2022-12-18T01:50:11;-2.90;86.20
44461;DHT22;30162;53.642;10.640;2022-12-18T01:52:43;-2.90;85.30
44461;DHT22;30162;53.642;10.640;2022-12-18T01:55:10;-2.90;86.10
44461;DHT22;30162;53.642;10.640;2022-12-18T01:57:38;-3.00;86.70
44461;DHT22;30162;53.642;10.640;2022-12-18T02:00:08;-2.80;87.00
44461;DHT22;30162;53.642;10.640;2022-12-18T02:02:34;-2.70;86.10
44461;DHT22;30162;53.642;10.640;2022-12-18T02:05:00;-2.50;85.80
44461;DHT22;30162;53.642;10.640;2022-12-18T02:08:04;-2.60;85.90
44461;DHT22;30162;53.642;10.640;2022-12-18T02:11:08;-2.90;86.70
44461;DHT22;30162;53.642;10.640;2022-12-18T02:16:24;-3.00;87.00
44461;DHT22;30162;53.642;10.640;2022-12-18T02:18:56;-3.00;85.50
44461;DHT22;30162;53.642;10.640;2022-12-18T02:26:46;-2.90;84.80
44461;DHT22;30162;53.642;10.640;2022-12-18T02:29:22;-3.00;84.50
44461;DHT22;30162;53.642;10.640;2022-12-18T02:31:52;-3.00;84.20
44461;DHT22;30162;53.642;10.640;2022-12-18T02:34:21;-3.10;84.60
44461;DHT22;30162;53.642;10.640;2022-12-18T02:36:48;-3.30;84.20
44461;DHT22;30162;53.642;10.640;2022-12-18T02:39:16;-3.20;84.30
44461;DHT22;30162;53.642;10.640;2022-12-18T02:41:43;-3.20;84.50
44461;DHT22;30162;53.642;10.640;2022-12-18T02:44:11;-3.30;84.50
44461;DHT22;30162;53.642;10.640;2022-12-18T02:46:41;-3.40;84.40
44461;DHT22;30162;53.642;10.640;2022-12-18T02:49:26;-3.60;84.90
44461;DHT22;30162;53.642;10.640;2022-12-18T02:55:17;-3.70;85.40
44461;DHT22;30162;53.642;10.640;2022-12-18T02:57:55;-3.70;85.70
44461;DHT22;30162;53.642;10.640;2022-12-18T03:00:28;-3.60;85.60
44461;DHT22;30162;53.642;10.640;2022-12-18T03:03:05;-3.60;85.50
44461;DHT22;30162;53.642;10.640;2022-12-18T03:05:38;-3.60;85.60
44461;DHT22;30162;53.642;10.640;2022-12-18T03:08:10;-3.40;84.90
44461;DHT22;30162;53.642;10.640;2022-12-18T03:10:39;-3.40;84.30
44461;DHT22;30162;53.642;10.640;2022-12-18T03:13:10;-3.50;84.70
44461;DHT22;30162;53.642;10.640;2022-12-18T03:15:49;-3.60;84.90
44461;DHT22;30162;53.642;10.640;2022-12-18T03:18:23;-3.60;84.30
44461;DHT22;30162;53.642;10.640;2022-12-18T03:20:52;-3.30;84.00
44461;DHT22;30162;53.642;10.640;2022-12-18T03:23:22;-3.30;83.20
44461;DHT22;30162;53.642;10.640;2022-12-18T03:25:54;-3.30;82.80
44461;DHT22;30162;53.642;10.640;2022-12-18T03:28:21;-3.40;82.90
44461;DHT22;30162;53.642;10.640;2022-12-18T03:30:51;-3.30;83.60
44461;DHT22;30162;53.642;10.640;2022-12-18T03:33:26;-3.30;83.20
44461;DHT22;30162;53.642;10.640;2022-12-18T03:35:53;-3.40;83.10
44461;DHT22;30162;53.642;10.640;2022-12-18T03:38:19;-3.40;83.90
44461;DHT22;30162;53.642;10.640;2022-12-18T03:40:53;-3.50;82.90
44461;DHT22;30162;53.642;10.640;2022-12-18T03:46:12;-3.50;84.00
44461;DHT22;30162;53.642;10.640;2022-12-18T03:48:52;-3.60;83.60
44461;DHT22;30162;53.642;10.640;2022-12-18T03:54:01;-3.60;83.40
44461;DHT22;30162;53.642;10.640;2022-12-18T03:56:36;-3.70;83.50
44461;DHT22;30162;53.642;10.640;2022-12-18T03:59:04;-3.60;83.80
44461;DHT22;30162;53.642;10.640;2022-12-18T04:01:34;-3.50;83.90
44461;DHT22;30162;53.642;10.640;2022-12-18T04:04:03;-3.60;83.40
44461;DHT22;30162;53.642;10.640;2022-12-18T04:06:30;-3.50;83.90
44461;DHT22;30162;53.642;10.640;2022-12-18T04:08:57;-3.50;83.70
44461;DHT22;30162;53.642;10.640;2022-12-18T04:11:23;-3.50;83.50
44461;DHT22;30162;53.642;10.640;2022-12-18T04:13:49;-3.30;83.60
44461;DHT22;30162;53.642;10.640;2022-12-18T04:16:15;-3.50;82.90
44461;DHT22;30162;53.642;10.640;2022-12-18T04:21:06;-3.60;84.80
44461;DHT22;30162;53.642;10.640;2022-12-18T04:23:32;-3.50;84.90
44461;DHT22;30162;53.642;10.640;2022-12-18T04:25:57;-3.40;84.10
44461;DHT22;30162;53.642;10.640;2022-12-18T04:28:23;-3.40;84.30
44461;DHT22;30162;53.642;10.640;2022-12-18T04:30:49;-3.70;85.30
44461;DHT22;30162;53.642;10.640;2022-12-18T04:33:14;-3.60;84.80
44461;DHT22;30162;53.642;10.640;2022-12-18T04:35:40;-3.60;85.50
44461;DHT22;30162;53.642;10.640;2022-12-18T04:38:07;-3.80;86.50
44461;DHT22;30162;53.642;10.640;2022-12-18T04:40:34;-3.50;85.90
44461;DHT22;30162;53.642;10.640;2022-12-18T04:42:59;-3.30;85.00
44461;DHT22;30162;53.642;10.640;2022-12-18T04:45:25;-3.40;85.50
44461;DHT22;30162;53.642;10.640;2022-12-18T04:47:50;-3.20;84.90
44461;DHT22;30162;53.642;10.640;2022-12-18T04:50:16;-3.00;85.40
44461;DHT22;30162;53.642;10.640;2022-12-18T04:52:41;-2.80;84.90
44461;DHT22;30162;53.642;10.640;2022-12-18T04:55:07;-2.80;84.30
44461;DHT22;30162;53.642;10.640;2022-12-18T04:57:32;-3.00;84.20
44461;DHT22;30162;53.642;10.640;2022-12-18T04:59:58;-2.90;84.90
44461;DHT22;30162;53.642;10.640;2022-12-18T05:02:24;-3.10;84.40
44461;DHT22;30162;53.642;10.640;2022-12-18T05:04:49;-3.10;84.00
44461;DHT22;30162;53.642;10.640;2022-12-18T05:07:15;-3.10;83.80
44461;DHT22;30162;53.642;10.640;2022-12-18T05:09:40;-3.10;82.90
44461;DHT22;30162;53.642;10.640;2022-12-18T05:12:06;-3.00;82.90
44461;DHT22;30162;53.642;10.640;2022-12-18T05:14:31;-3.10;82.70
44461;DHT22;30162;53.642;10.640;2022-12-18T05:16:57;-3.30;82.40
44461;DHT22;30162;53.642;10.640;2022-12-18T05:19:22;-3.30;82.80
44461;DHT22;30162;53.642;10.640;2022-12-18T05:21:48;-3.50;83.40
44461;DHT22;30162;53.642;10.640;2022-12-18T05:24:13;-3.40;83.40
44461;DHT22;30162;53.642;10.640;2022-12-18T05:26:39;-3.50;83.30
44461;DHT22;30162;53.642;10.640;2022-12-18T05:29:04;-3.60;83.50
44461;DHT22;30162;53.642;10.640;2022-12-18T05:31:30;-3.50;84.20
44461;DHT22;30162;53.642;10.640;2022-12-18T05:33:56;-3.50;83.70
44461;DHT22;30162;53.642;10.640;2022-12-18T05:36:21;-3.50;83.70
44461;DHT22;30162;53.642;10.640;2022-12-18T05:38:47;-3.50;83.10
44461;DHT22;30162;53.642;10.640;2022-12-18T05:41:12;-3.80;83.20
44461;DHT22;30162;53.642;10.640;2022-12-18T05:43:38;-3.90;83.40
44461;DHT22;30162;53.642;10.640;2022-12-18T05:46:12;-4.00;83.50
44461;DHT22;30162;53.642;10.640;2022-12-18T05:48:38;-4.00;84.10
44461;DHT22;30162;53.642;10.640;2022-12-18T05:51:10;-4.00;83.30
44461;DHT22;30162;53.642;10.640;2022-12-18T05:53:36;-4.00;83.30
44461;DHT22;30162;53.642;10.640;2022-12-18T05:56:04;-3.80;83.70
44461;DHT22;30162;53.642;10.640;2022-12-18T05:58:31;-4.00;84.80
44461;DHT22;30162;53.642;10.640;2022-12-18T06:00:57;-3.80;83.90
44461;DHT22;30162;53.642;10.640;2022-12-18T06:03:23;-3.70;82.80
44461;DHT22;30162;53.642;10.640;2022-12-18T06:05:49;-3.70;82.70
44461;DHT22;30162;53.642;10.640;2022-12-18T06:08:14;-3.70;82.00
44461;DHT22;30162;53.642;10.640;2022-12-18T06:10:41;-3.80;81.80
44461;DHT22;30162;53.642;10.640;2022-12-18T06:13:07;-3.90;83.20
44461;DHT22;30162;53.642;10.640;2022-12-18T06:15:35;-4.10;84.60
44461;DHT22;30162;53.642;10.640;2022-12-18T06:18:01;-3.90;84.10
44461;DHT22;30162;53.642;10.640;2022-12-18T06:20:26;-3.90;83.10
44461;DHT22;30162;53.642;10.640;2022-12-18T06:22:52;-3.70;83.20
44461;DHT22;30162;53.642;10.640;2022-12-18T06:25:18;-4.00;83.60
44461;DHT22;30162;53.642;10.640;2022-12-18T06:27:43;-4.00;84.70
44461;DHT22;30162;53.642;10.640;2022-12-18T06:30:09;-3.80;84.70
44461;DHT22;30162;53.642;10.640;2022-12-18T06:32:35;-3.60;84.30
44461;DHT22;30162;53.642;10.640;2022-12-18T06:35:01;-3.90;84.30
44461;DHT22;30162;53.642;10.640;2022-12-18T06:37:26;-3.80;84.80
44461;DHT22;30162;53.642;10.640;2022-12-18T06:39:53;-3.60;84.30
44461;DHT22;30162;53.642;10.640;2022-12-18T06:42:18;-3.60;83.50
44461;DHT22;30162;53.642;10.640;2022-12-18T06:44:44;-3.60;83.40
44461;DHT22;30162;53.642;10.640;2022-12-18T06:47:09;-3.70;83.10
44461;DHT22;30162;53.642;10.640;2022-12-18T06:49:35;-3.80;82.40
44461;DHT22;30162;53.642;10.640;2022-12-18T06:52:01;-3.80;82.30
44461;DHT22;30162;53.642;10.640;2022-12-18T06:54:26;-3.80;81.60
44461;DHT22;30162;53.642;10.640;2022-12-18T06:56:52;-4.00;81.70
44461;DHT22;30162;53.642;10.640;2022-12-18T06:59:17;-4.10;82.40
44461;DHT22;30162;53.642;10.640;2022-12-18T07:01:43;-4.20;82.30
44461;DHT22;30162;53.642;10.640;2022-12-18T07:04:08;-4.20;83.20
44461;DHT22;30162;53.642;10.640;2022-12-18T07:06:34;-4.10;82.80
44461;DHT22;30162;53.642;10.640;2022-12-18T07:08:59;-4.10;83.00
44461;DHT22;30162;53.642;10.640;2022-12-18T07:11:25;-4.10;82.90
44461;DHT22;30162;53.642;10.640;2022-12-18T07:13:52;-4.20;83.20
44461;DHT22;30162;53.642;10.640;2022-12-18T07:16:20;-4.10;83.70
44461;DHT22;30162;53.642;10.640;2022-12-18T07:18:46;-4.00;82.70
44461;DHT22;30162;53.642;10.640;2022-12-18T07:21:16;-4.20;82.60
44461;DHT22;30162;53.642;10.640;2022-12-18T07:23:41;-4.10;83.20
44461;DHT22;30162;53.642;10.640;2022-12-18T07:26:12;-4.00;82.20
44461;DHT22;30162;53.642;10.640;2022-12-18T07:28:39;-4.10;82.70
44461;DHT22;30162;53.642;10.640;2022-12-18T07:31:11;-4.20;81.30
44461;DHT22;30162;53.642;10.640;2022-12-18T07:33:37;-4.10;82.20
44461;DHT22;30162;53.642;10.640;2022-12-18T07:36:04;-4.30;82.90
44461;DHT22;30162;53.642;10.640;2022-12-18T07:38:32;-4.30;82.80
44461;DHT22;30162;53.642;10.640;2022-12-18T07:41:02;-4.20;83.20
44461;DHT22;30162;53.642;10.640;2022-12-18T07:43:28;-4.10;83.10
44461;DHT22;30162;53.642;10.640;2022-12-18T07:45:54;-4.20;83.00
44461;DHT22;30162;53.642;10.640;2022-12-18T07:48:19;-4.40;84.90
44461;DHT22;30162;53.642;10.640;2022-12-18T07:50:45;-4.40;84.70
44461;DHT22;30162;53.642;10.640;2022-12-18T07:53:11;-4.20;85.80
44461;DHT22;30162;53.642;10.640;2022-12-18T07:55:36;-4.20;84.60
44461;DHT22;30162;53.642;10.640;2022-12-18T07:58:03;-4.00;85.20
44461;DHT22;30162;53.642;10.640;2022-12-18T08:00:28;-3.70;83.90
44461;DHT22;30162;53.642;10.640;2022-12-18T08:02:54;-3.80;82.70
44461;DHT22;30162;53.642;10.640;2022-12-18T08:05:19;-3.80;83.30
44461;DHT22;30162;53.642;10.640;2022-12-18T08:07:46;-3.90;83.60
44461;DHT22;30162;53.642;10.640;2022-12-18T08:10:12;-3.90;82.90
44461;DHT22;30162;53.642;10.640;2022-12-18T08:12:37;-3.90;83.30
44461;DHT22;30162;53.642;10.640;2022-12-18T08:15:03;-3.80;83.80
44461;DHT22;30162;53.642;10.640;2022-12-18T08:17:29;-4.10;83.80
44461;DHT22;30162;53.642;10.640;2022-12-18T08:19:55;-4.00;84.50
44461;DHT22;30162;53.642;10.640;2022-12-18T08:22:20;-4.10;85.30
44461;DHT22;30162;53.642;10.640;2022-12-18T08:24:46;-3.90;85.60
44461;DHT22;30162;53.642;10.640;2022-12-18T08:27:12;-3.80;85.30
44461;DHT22;30162;53.642;10.640;2022-12-18T08:29:37;-3.60;83.80
44461;DHT22;30162;53.642;10.640;2022-12-18T08:32:03;-3.50;83.60
44461;DHT22;30162;53.642;10.640;2022-12-18T08:34:29;-3.70;83.20
44461;DHT22;30162;53.642;10.640;2022-12-18T08:36:54;-3.40;84.10
44461;DHT22;30162;53.642;10.640;2022-12-18T08:39:20;-3.30;83.20
44461;DHT22;30162;53.642;10.640;2022-12-18T08:41:45;-3.60;84.40
44461;DHT22;30162;53.642;10.640;2022-12-18T08:44:31;-3.30;84.20
44461;DHT22;30162;53.642;10.640;2022-12-18T08:47:02;-3.20;83.50
44461;DHT22;30162;53.642;10.640;2022-12-18T08:49:28;-3.10;83.20
44461;DHT22;30162;53.642;10.640;2022-12-18T08:51:55;-3.20;83.70
44461;DHT22;30162;53.642;10.640;2022-12-18T08:54:22;-3.00;83.40
44461;DHT22;30162;53.642;10.640;2022-12-18T08:56:48;-2.80;82.60
44461;DHT22;30162;53.642;10.640;2022-12-18T08:59:15;-2.80;82.70
44461;DHT22;30162;53.642;10.640;2022-12-18T09:01:41;-2.80;82.40
44461;DHT22;30162;53.642;10.640;2022-12-18T09:04:08;-2.80;82.80
44461;DHT22;30162;53.642;10.640;2022-12-18T09:06:34;-2.60;82.40
44461;DHT22;30162;53.642;10.640;2022-12-18T09:09:00;-2.90;82.00
44461;DHT22;30162;53.642;10.640;2022-12-18T09:11:27;-3.20;83.30
44461;DHT22;30162;53.642;10.640;2022-12-18T09:13:54;-3.20;83.90
44461;DHT22;30162;53.642;10.640;2022-12-18T09:16:20;-3.00;83.80
44461;DHT22;30162;53.642;10.640;2022-12-18T09:18:47;-3.00;83.40
44461;DHT22;30162;53.642;10.640;2022-12-18T09:21:18;-2.90;83.90
44461;DHT22;30162;53.642;10.640;2022-12-18T09:23:44;-2.60;83.80
44461;DHT22;30162;53.642;10.640;2022-12-18T09:26:09;-2.60;83.00
44461;DHT22;30162;53.642;10.640;2022-12-18T09:28:35;-2.50;83.10
44461;DHT22;30162;53.642;10.640;2022-12-18T09:31:06;-2.50;83.00
44461;DHT22;30162;53.642;10.640;2022-12-18T09:33:33;-2.50;82.60
44461;DHT22;30162;53.642;10.640;2022-12-18T09:36:01;-2.80;83.80
44461;DHT22;30162;53.642;10.640;2022-12-18T09:38:27;-2.60;83.70
44461;DHT22;30162;53.642;10.640;2022-12-18T09:41:19;-2.40;83.30
44461;DHT22;30162;53.642;10.640;2022-12-18T09:44:02;-2.50;83.00
44461;DHT22;30162;53.642;10.640;2022-12-18T09:46:34;-2.40;83.40
44461;DHT22;30162;53.642;10.640;2022-12-18T09:49:02;-2.40;83.30
44461;DHT22;30162;53.642;10.640;2022-12-18T09:51:44;-2.10;83.60
44461;DHT22;30162;53.642;10.640;2022-12-18T09:54:22;-2.30;82.90
44461;DHT22;30162;53.642;10.640;2022-12-18T09:56:49;-2.20;83.60
44461;DHT22;30162;53.642;10.640;2022-12-18T09:59:27;-2.50;83.20
44461;DHT22;30162;53.642;10.640;2022-12-18T10:01:56;-2.30;84.30
44461;DHT22;30162;53.642;10.640;2022-12-18T10:04:21;-2.20;84.40
44461;DHT22;30162;53.642;10.640;2022-12-18T10:09:21;-1.90;82.80
44461;DHT22;30162;53.642;10.640;2022-12-18T10:12:08;-2.10;83.50
44461;DHT22;30162;53.642;10.640;2022-12-18T10:17:20;-1.70;83.20
44461;DHT22;30162;53.642;10.640;2022-12-18T10:19:54;-1.60;83.30
44461;DHT22;30162;53.642;10.640;2022-12-18T10:25:15;-1.60;83.40
44461;DHT22;30162;53.642;10.640;2022-12-18T10:27:42;-1.50;84.10
44461;DHT22;30162;53.642;10.640;2022-12-18T10:30:17;-1.50;84.00
44461;DHT22;30162;53.642;10.640;2022-12-18T10:32:43;-1.40;83.80
44461;DHT22;30162;53.642;10.640;2022-12-18T10:35:18;-1.70;84.10
44461;DHT22;30162;53.642;10.640;2022-12-18T10:38:07;-1.70;84.60
44461;DHT22;30162;53.642;10.640;2022-12-18T10:41:01;-1.50;84.60
44461;DHT22;30162;53.642;10.640;2022-12-18T10:43:35;-1.40;84.80
44461;DHT22;30162;53.642;10.640;2022-12-18T10:48:33;-1.00;82.60
44461;DHT22;30162;53.642;10.640;2022-12-18T10:50:59;-1.50;83.50
44461;DHT22;30162;53.642;10.640;2022-12-18T10:53:27;-1.70;84.90
44461;DHT22;30162;53.642;10.640;2022-12-18T10:55:56;-1.50;84.90
44461;DHT22;30162;53.642;10.640;2022-12-18T10:58:28;-1.40;84.70
44461;DHT22;30162;53.642;10.640;2022-12-18T11:01:15;-2.00;84.90
44461;DHT22;30162;53.642;10.640;2022-12-18T11:03:46;-1.70;85.90
44461;DHT22;30162;53.642;10.640;2022-12-18T11:06:24;-1.80;86.30
44461;DHT22;30162;53.642;10.640;2022-12-18T11:09:05;-1.70;85.90
44461;DHT22;30162;53.642;10.640;2022-12-18T11:11:32;-1.40;85.40
44461;DHT22;30162;53.642;10.640;2022-12-18T11:16:27;-1.00;85.20
44461;DHT22;30162;53.642;10.640;2022-12-18T11:18:53;-1.00;84.70
44461;DHT22;30162;53.642;10.640;2022-12-18T11:21:19;-1.00;84.10
44461;DHT22;30162;53.642;10.640;2022-12-18T11:23:52;-0.90;85.00
44461;DHT22;30162;53.642;10.640;2022-12-18T11:26:19;-0.80;84.50
44461;DHT22;30162;53.642;10.640;2022-12-18T11:28:53;-0.70;84.30
44461;DHT22;30162;53.642;10.640;2022-12-18T11:31:32;-1.20;84.70
44461;DHT22;30162;53.642;10.640;2022-12-18T11:34:11;-0.90;86.00
44461;DHT22;30162;53.642;10.640;2022-12-18T11:36:42;-0.80;85.80
44461;DHT22;30162;53.642;10.640;2022-12-18T11:39:19;-0.60;85.40
44461;DHT22;30162;53.642;10.640;2022-12-18T11:42:09;-0.70;85.10
44461;DHT22;30162;53.642;10.640;2022-12-18T11:44:50;-0.90;85.70
44461;DHT22;30162;53.642;10.640;2022-12-18T11:47:39;-0.50;85.50
44461;DHT22;30162;53.642;10.640;2022-12-18T11:50:14;-0.20;84.80
44461;DHT22;30162;53.642;10.640;2022-12-18T11:52:40;0.00;84.60
44461;DHT22;30162;53.642;10.640;2022-12-18T12:00:27;-0.10;85.40
44461;DHT22;30162;53.642;10.640;2022-12-18T12:03:12;-0.30;85.80
44461;DHT22;30162;53.642;10.640;2022-12-18T12:24:55;0.30;85.80
44461;DHT22;30162;53.642;10.640;2022-12-18T12:27:50;0.50;85.00
44461;DHT22;30162;53.642;10.640;2022-12-18T12:30:19;0.60;84.40
44461;DHT22;30162;53.642;10.640;2022-12-18T12:33:29;0.10;85.20
44461;DHT22;30162;53.642;10.640;2022-12-18T12:38:48;0.40;85.70
44461;DHT22;30162;53.642;10.640;2022-12-18T12:41:19;0.20;85.80
44461;DHT22;30162;53.642;10.640;2022-12-18T12:44:08;0.10;85.50
44461;DHT22;30162;53.642;10.640;2022-12-18T12:46:37;0.20;86.20
44461;DHT22;30162;53.642;10.640;2022-12-18T12:49:10;0.60;85.50
44461;DHT22;30162;53.642;10.640;2022-12-18T12:51:40;0.60;85.20
44461;DHT22;30162;53.642;10.640;2022-12-18T12:54:14;0.30;84.70
44461;DHT22;30162;53.642;10.640;2022-12-18T12:57:00;0.10;85.70
44461;DHT22;30162;53.642;10.640;2022-12-18T13:00:04;0.30;85.40
44461;DHT22;30162;53.642;10.640;2022-12-18T13:02:32;0.50;85.60
44461;DHT22;30162;53.642;10.640;2022-12-18T13:15:43;0.40;84.60
44461;DHT22;30162;53.642;10.640;2022-12-18T13:23:25;0.60;85.00
44461;DHT22;30162;53.642;10.640;2022-12-18T13:34:21;0.30;85.00
44461;DHT22;30162;53.642;10.640;2022-12-18T13:36:47;0.10;85.70
44461;DHT22;30162;53.642;10.640;2022-12-18T13:41:42;0.50;84.50
44461;DHT22;30162;53.642;10.640;2022-12-18T13:44:34;0.30;85.30
44461;DHT22;30162;53.642;10.640;2022-12-18T13:47:02;0.30;85.00
44461;DHT22;30162;53.642;10.640;2022-12-18T13:49:31;0.40;85.90
44461;DHT22;30162;53.642;10.640;2022-12-18T13:52:01;0.60;85.40
44461;DHT22;30162;53.642;10.640;2022-12-18T13:54:36;0.60;85.30
44461;DHT22;30162;53.642;10.640;2022-12-18T13:57:03;0.70;84.50
44461;DHT22;30162;53.642;10.640;2022-12-18T13:59:37;0.90;84.60
44461;DHT22;30162;53.642;10.640;2022-12-18T14:02:20;0.80;83.90
44461;DHT22;30162;53.642;10.640;2022-12-18T14:04:47;0.40;84.40
44461;DHT22;30162;53.642;10.640;2022-12-18T14:09:50;0.00;85.90
44461;DHT22;30162;53.642;10.640;2022-12-18T14:12:18;-0.10;85.90
44461;DHT22;30162;53.642;10.640;2022-12-18T14:15:05;-0.10;86.80
44461;DHT22;30162;53.642;10.640;2022-12-18T14:17:31;0.10;86.00
44461;DHT22;30162;53.642;10.640;2022-12-18T14:19:57;0.00;85.60
44461;DHT22;30162;53.642;10.640;2022-12-18T14:22:25;-0.10;86.20
44461;DHT22;30162;53.642;10.640;2022-12-18T14:25:17;0.20;86.10
44461;DHT22;30162;53.642;10.640;2022-12-18T14:27:46;0.20;85.40
44461;DHT22;30162;53.642;10.640;2022-12-18T14:35:35;-0.10;85.60
44461;DHT22;30162;53.642;10.640;2022-12-18T14:40:42;-0.20;85.60
44461;DHT22;30162;53.642;10.640;2022-12-18T14:43:11;-0.30;86.00
44461;DHT22;30162;53.642;10.640;2022-12-18T14:45:41;-0.10;86.70
44461;DHT22;30162;53.642;10.640;2022-12-18T14:48:20;0.00;86.10
44461;DHT22;30162;53.642;10.640;2022-12-18T14:51:01;0.00;85.50
44461;DHT22;30162;53.642;10.640;2022-12-18T14:53:39;0.10;85.00
44461;DHT22;30162;53.642;10.640;2022-12-18T14:56:21;-0.20;85.30
44461;DHT22;30162;53.642;10.640;2022-12-18T14:58:48;-0.40;87.00
44461;DHT22;30162;53.642;10.640;2022-12-18T15:01:23;-0.30;86.40
44461;DHT22;30162;53.642;10.640;2022-12-18T15:03:50;-0.20;86.50
44461;DHT22;30162;53.642;10.640;2022-12-18T15:06:37;-0.30;86.00
44461;DHT22;30162;53.642;10.640;2022-12-18T15:09:24;-0.20;86.30
44461;DHT22;30162;53.642;10.640;2022-12-18T15:11:58;-0.40;86.40
44461;DHT22;30162;53.642;10.640;2022-12-18T15:14:40;-0.90;87.60
44461;DHT22;30162;53.642;10.640;2022-12-18T15:17:38;-0.60;87.60
44461;DHT22;30162;53.642;10.640;2022-12-18T15:20:10;-0.80;88.00
44461;DHT22;30162;53.642;10.640;2022-12-18T15:22:36;-0.70;87.80
44461;DHT22;30162;53.642;10.640;2022-12-18T15:25:19;-0.60;87.60
44461;DHT22;30162;53.642;10.640;2022-12-18T15:27:48;-0.50;86.70
44461;DHT22;30162;53.642;10.640;2022-12-18T15:30:24;-0.50;87.40
44461;DHT22;30162;53.642;10.640;2022-12-18T15:32:51;-0.70;87.60
44461;DHT22;30162;53.642;10.640;2022-12-18T15:35:24;-0.40;87.40
44461;DHT22;30162;53.642;10.640;2022-12-18T15:37:53;-0.30;86.70
44461;DHT22;30162;53.642;10.640;2022-12-18T15:40:21;-0.30;86.70
44461;DHT22;30162;53.642;10.640;2022-12-18T15:42:48;-0.20;86.10
44461;DHT22;30162;53.642;10.640;2022-12-18T15:45:32;-0.30;85.20
44461;DHT22;30162;53.642;10.640;2022-12-18T15:47:58;-0.30;85.60
44461;DHT22;30162;53.642;10.640;2022-12-18T15:50:24;-0.20;85.90
44461;DHT22;30162;53.642;10.640;2022-12-18T15:52:51;-0.10;85.30
44461;DHT22;30162;53.642;10.640;2022-12-18T15:55:20;-0.40;86.00
44461;DHT22;30162;53.642;10.640;2022-12-18T15:58:06;-0.30;86.40
44461;DHT22;30162;53.642;10.640;2022-12-18T16:00:32;-0.30;86.30
44461;DHT22;30162;53.642;10.640;2022-12-18T16:02:59;-1.00;87.90
44461;DHT22;30162;53.642;10.640;2022-12-18T16:05:26;-1.10;89.80
44461;DHT22;30162;53.642;10.640;2022-12-18T16:07:52;-0.80;89.40
44461;DHT22;30162;53.642;10.640;2022-12-18T16:10:17;-0.90;89.30
44461;DHT22;30162;53.642;10.640;2022-12-18T16:12:43;-1.20;89.70
44461;DHT22;30162;53.642;10.640;2022-12-18T16:15:12;-1.10;90.40
44461;DHT22;30162;53.642;10.640;2022-12-18T16:17:45;-0.80;90.10
44461;DHT22;30162;53.642;10.640;2022-12-18T16:20:20;-0.60;89.40
44461;DHT22;30162;53.642;10.640;2022-12-18T16:22:46;-1.10;90.40
44461;DHT22;30162;53.642;10.640;2022-12-18T16:25:20;-0.80;90.30
44461;DHT22;30162;53.642;10.640;2022-12-18T16:27:46;-0.70;89.80
44461;DHT22;30162;53.642;10.640;2022-12-18T16:30:17;-0.80;90.40
44461;DHT22;30162;53.642;10.640;2022-12-18T16:32:43;-0.80;90.10
44461;DHT22;30162;53.642;10.640;2022-12-18T16:35:11;-0.80;90.30
44461;DHT22;30162;53.642;10.640;2022-12-18T16:37:37;-0.80;90.80
44461;DHT22;30162;53.642;10.640;2022-12-18T16:40:02;-0.70;90.50
44461;DHT22;30162;53.642;10.640;2022-12-18T16:42:28;-0.60;90.30
44461;DHT22;30162;53.642;10.640;2022-12-18T16:44:54;-0.50;90.10
44461;DHT22;30162;53.642;10.640;2022-12-18T16:47:19;-0.20;89.80
44461;DHT22;30162;53.642;10.640;2022-12-18T16:49:45;-0.30;89.80
44461;DHT22;30162;53.642;10.640;2022-12-18T16:52:10;0.00;88.90
44461;DHT22;30162;53.642;10.640;2022-12-18T16:54:36;0.00;88.80
44461;DHT22;30162;53.642;10.640;2022-12-18T16:57:02;-0.10;88.80
44461;DHT22;30162;53.642;10.640;2022-12-18T16:59:29;-0.40;89.30
44461;DHT22;30162;53.642;10.640;2022-12-18T17:01:55;-0.10;90.40
44461;DHT22;30162;53.642;10.640;2022-12-18T17:04:21;0.30;89.30
44461;DHT22;30162;53.642;10.640;2022-12-18T17:06:47;0.10;88.50
44461;DHT22;30162;53.642;10.640;2022-12-18T17:09:18;0.00;88.90
44461;DHT22;30162;53.642;10.640;2022-12-18T17:11:50;0.00;89.10
44461;DHT22;30162;53.642;10.640;2022-12-18T17:14:18;0.20;88.70
44461;DHT22;30162;53.642;10.640;2022-12-18T17:16:44;0.50;87.70